createdAt,value
2016-04-06T00:00:35.569Z,10.89
2016-04-06T00:01:35.557Z,10.89
2016-04-06T00:02:35.529Z,10.9
2016-04-06T00:03:35.515Z,10.9
2016-04-06T00:04:35.471Z,10.92
2016-04-06T00:05:35.457Z,10.92
2016-04-06T00:06:35.445Z,10.87
2016-04-06T00:07:35.417Z,10.93
2016-04-06T00:08:35.403Z,10.81
2016-04-06T00:09:35.359Z,10.99
2016-04-06T00:10:35.345Z,10.97
2016-04-06T00:11:35.317Z,10.96
2016-04-06T00:12:35.289Z,10.97
2016-04-06T00:13:35.291Z,11.04
2016-04-06T00:14:35.247Z,10.99
2016-04-06T00:15:35.219Z,11.02
2016-04-06T00:16:35.190Z,10.92
2016-04-06T00:17:35.177Z,10.99
2016-04-06T00:18:35.149Z,10.97
2016-04-06T00:19:35.120Z,10.94
2016-04-06T00:20:35.107Z,10.99
2016-04-06T00:21:35.079Z,10.94
2016-04-06T00:22:35.066Z,10.94
2016-04-06T00:23:35.038Z,10.9
2016-04-06T00:24:35.008Z,10.89
2016-04-06T00:25:34.996Z,10.86
2016-04-06T00:26:34.967Z,10.84
2016-04-06T00:27:34.954Z,10.89
2016-04-06T00:28:34.941Z,10.78
2016-04-06T00:29:34.897Z,10.76
2016-04-06T00:30:34.869Z,10.84
2016-04-06T00:31:34.841Z,10.82
2016-04-06T00:32:34.827Z,10.78
2016-04-06T00:33:34.799Z,10.79
2016-04-06T00:34:34.770Z,10.84
2016-04-06T00:35:34.757Z,10.86
2016-04-06T00:36:34.728Z,10.84
2016-04-06T00:37:34.715Z,10.82
2016-04-06T00:38:34.734Z,10.82
2016-04-06T00:39:34.659Z,10.75
2016-04-06T00:40:34.631Z,10.74
2016-04-06T00:41:34.601Z,10.87
2016-04-06T00:42:34.589Z,10.74
2016-04-06T00:43:34.575Z,10.76
2016-04-06T00:44:34.547Z,10.79
2016-04-06T00:45:34.519Z,10.72
2016-04-06T00:46:34.505Z,10.81
2016-04-06T00:47:34.478Z,10.78
2016-04-06T00:48:34.448Z,10.82
2016-04-06T00:49:34.420Z,10.79
2016-04-06T00:50:34.391Z,10.87
2016-04-06T00:51:34.378Z,10.79
2016-04-06T00:52:34.350Z,10.84
2016-04-06T00:53:34.336Z,10.72
2016-04-06T00:54:34.308Z,10.75
2016-04-06T00:55:34.279Z,10.87
2016-04-06T00:56:34.252Z,10.78
2016-04-06T00:57:34.238Z,10.81
2016-04-06T00:58:34.210Z,10.87
2016-04-06T00:59:34.197Z,10.78
2016-04-06T01:00:34.152Z,10.75
2016-04-06T01:01:34.140Z,10.72
2016-04-06T01:02:34.127Z,10.84
2016-04-06T01:03:34.098Z,10.76
2016-04-06T01:04:34.085Z,10.87
2016-04-06T01:05:34.040Z,10.71
2016-04-06T01:06:34.028Z,10.86
2016-04-06T01:07:34.015Z,10.71
2016-04-06T01:08:33.971Z,10.79
2016-04-06T01:09:33.943Z,10.69
2016-04-06T01:10:33.945Z,10.78
2016-04-06T01:11:33.901Z,10.72
2016-04-06T01:12:33.887Z,10.82
2016-04-06T01:13:33.859Z,10.86
2016-04-06T01:14:33.831Z,10.78
2016-04-06T01:15:33.803Z,10.74
2016-04-06T01:16:33.790Z,10.81
2016-04-06T01:17:33.761Z,10.78
2016-04-06T01:18:33.748Z,10.75
2016-04-06T01:19:33.719Z,10.72
2016-04-06T01:20:33.691Z,10.74
2016-04-06T01:21:33.678Z,10.71
2016-04-06T01:22:33.649Z,10.64
2016-04-06T01:23:33.621Z,10.61
2016-04-06T01:24:33.591Z,10.6
2016-04-06T01:25:33.580Z,10.64
2016-04-06T01:26:33.550Z,10.64
2016-04-06T01:27:33.538Z,10.67
2016-04-06T01:28:33.510Z,10.61
2016-04-06T01:29:33.480Z,10.61
2016-04-06T01:30:33.468Z,10.54
2016-04-06T01:31:33.423Z,10.54
2016-04-06T01:32:33.410Z,10.57
2016-04-06T01:33:33.381Z,10.48
2016-04-06T01:34:33.353Z,10.44
2016-04-06T01:35:33.340Z,10.42
2016-04-06T01:36:33.312Z,10.4
2016-04-06T01:37:33.284Z,10.38
2016-04-06T01:38:33.255Z,10.42
2016-04-06T01:39:33.242Z,10.33
2016-04-06T01:40:33.213Z,10.4
2016-04-06T01:41:33.184Z,10.33
2016-04-06T01:42:33.172Z,10.35
2016-04-06T01:43:33.143Z,10.33
2016-04-06T01:44:33.131Z,10.31
2016-04-06T01:45:33.102Z,10.28
2016-04-06T01:46:33.073Z,10.3
2016-04-06T01:47:33.045Z,10.28
2016-04-06T01:48:33.031Z,10.33
2016-04-06T01:49:33.003Z,10.2
2016-04-06T01:50:32.974Z,10.19
2016-04-06T01:51:32.946Z,10.25
2016-04-06T01:52:32.933Z,10.13
2016-04-06T01:53:32.904Z,10.13
2016-04-06T01:54:32.876Z,10.09
2016-04-06T01:55:32.863Z,10.2
2016-04-06T01:56:32.835Z,10.12
2016-04-06T01:57:32.806Z,10.05
2016-04-06T01:58:32.777Z,10.12
2016-04-06T01:59:32.764Z,10.04
2016-04-06T02:00:32.766Z,10.04
2016-04-06T02:01:32.723Z,10.09
2016-04-06T02:02:32.709Z,10.01
2016-04-06T02:03:32.665Z,9.97
2016-04-06T02:04:32.637Z,10.05
2016-04-06T02:05:32.609Z,9.97
2016-04-06T02:06:32.596Z,9.99
2016-04-06T02:07:32.567Z,10.01
2016-04-06T02:08:32.546Z,9.89
2016-04-06T02:09:32.534Z,9.97
2016-04-06T02:10:32.490Z,9.95
2016-04-06T02:11:32.461Z,9.94
2016-04-06T02:12:32.448Z,9.99
2016-04-06T02:13:32.420Z,10.04
2016-04-06T02:14:32.407Z,10.01
2016-04-06T02:15:32.379Z,9.89
2016-04-06T02:16:32.350Z,9.94
2016-04-06T02:17:32.321Z,9.98
2016-04-06T02:18:32.355Z,10.02
2016-04-06T02:19:32.279Z,10.02
2016-04-06T02:20:32.251Z,10.04
2016-04-06T02:21:32.223Z,10.04
2016-04-06T02:22:32.195Z,10.09
2016-04-06T02:23:32.182Z,10.07
2016-04-06T02:24:32.168Z,10.07
2016-04-06T02:25:32.124Z,10.07
2016-04-06T02:26:32.111Z,9.99
2016-04-06T02:27:32.083Z,10.02
2016-04-06T02:28:32.053Z,10.07
2016-04-06T02:29:32.056Z,10.15
2016-04-06T02:30:32.012Z,10.07
2016-04-06T02:31:31.984Z,10.07
2016-04-06T02:32:31.956Z,10.02
2016-04-06T02:33:31.928Z,9.99
2016-04-06T02:34:31.914Z,10.15
2016-04-06T02:35:31.886Z,10.12
2016-04-06T02:36:31.872Z,10.12
2016-04-06T02:37:31.844Z,10.07
2016-04-06T02:38:31.816Z,10.09
2016-04-06T02:39:31.802Z,10.13
2016-04-06T02:40:31.774Z,10.05
2016-04-06T02:41:31.746Z,10.12
2016-04-06T02:42:31.716Z,10.07
2016-04-06T02:43:31.704Z,10.22
2016-04-06T02:44:31.675Z,10.25
2016-04-06T02:45:31.647Z,10.13
2016-04-06T02:46:31.618Z,10.2
2016-04-06T02:47:31.605Z,10.17
2016-04-06T02:48:31.576Z,10.17
2016-04-06T02:49:31.548Z,10.23
2016-04-06T02:50:31.520Z,10.16
2016-04-06T02:51:31.491Z,10.19
2016-04-06T02:52:31.494Z,10.22
2016-04-06T02:53:31.465Z,10.15
2016-04-06T02:54:31.437Z,10.17
2016-04-06T02:55:31.408Z,10.12
2016-04-06T02:56:31.379Z,10.19
2016-04-06T02:57:31.367Z,10.1
2016-04-06T02:58:31.337Z,10.16
2016-04-06T02:59:31.309Z,10.16
2016-04-06T03:00:31.281Z,10.22
2016-04-06T03:01:31.268Z,10.23
2016-04-06T03:02:31.256Z,10.15
2016-04-06T03:03:31.211Z,10.09
2016-04-06T03:04:31.198Z,10.2
2016-04-06T03:05:31.170Z,10.1
2016-04-06T03:06:31.156Z,10.13
2016-04-06T03:07:31.128Z,10.09
2016-04-06T03:08:31.099Z,10.05
2016-04-06T03:09:31.071Z,10.07
2016-04-06T03:10:31.041Z,10.02
2016-04-06T03:11:31.029Z,10.01
2016-04-06T03:12:31.016Z,10.01
2016-04-06T03:13:30.832Z,9.99
2016-04-06T03:14:30.960Z,9.87
2016-04-06T03:15:30.930Z,9.89
2016-04-06T03:16:30.902Z,9.97
2016-04-06T03:17:30.888Z,9.91
2016-04-06T03:18:30.876Z,9.89
2016-04-06T03:19:30.832Z,9.86
2016-04-06T03:20:30.804Z,9.94
2016-04-06T03:21:30.791Z,9.95
2016-04-06T03:22:30.793Z,9.91
2016-04-06T03:23:30.749Z,9.92
2016-04-06T03:24:30.720Z,9.98
2016-04-06T03:25:30.692Z,9.94
2016-04-06T03:26:30.662Z,9.89
2016-04-06T03:27:30.650Z,9.87
2016-04-06T03:28:30.622Z,9.87
2016-04-06T03:29:30.592Z,9.86
2016-04-06T03:30:30.581Z,9.92
2016-04-06T03:31:30.551Z,9.92
2016-04-06T03:32:30.523Z,10.01
2016-04-06T03:33:30.495Z,9.86
2016-04-06T03:34:30.498Z,9.86
2016-04-06T03:35:30.453Z,9.87
2016-04-06T03:36:30.425Z,9.98
2016-04-06T03:37:30.411Z,9.91
2016-04-06T03:38:30.383Z,9.86
2016-04-06T03:39:30.354Z,9.86
2016-04-06T03:40:30.325Z,9.82
2016-04-06T03:41:30.313Z,9.91
2016-04-06T03:42:30.285Z,9.77
2016-04-06T03:43:30.256Z,9.8
2016-04-06T03:44:30.227Z,9.8
2016-04-06T03:45:30.214Z,9.79
2016-04-06T03:46:30.185Z,9.77
2016-04-06T03:47:30.157Z,9.79
2016-04-06T03:48:30.129Z,9.77
2016-04-06T03:49:30.116Z,9.91
2016-04-06T03:50:30.087Z,9.83
2016-04-06T03:51:30.074Z,9.82
2016-04-06T03:52:30.046Z,9.76
2016-04-06T03:53:30.017Z,9.76
2016-04-06T03:54:29.988Z,9.72
2016-04-06T03:55:29.960Z,9.73
2016-04-06T03:56:29.947Z,9.77
2016-04-06T03:57:29.918Z,9.74
2016-04-06T03:58:29.905Z,9.82
2016-04-06T03:59:29.862Z,9.74
2016-04-06T04:00:29.848Z,9.79
2016-04-06T04:01:29.820Z,9.69
2016-04-06T04:02:29.792Z,9.76
2016-04-06T04:03:29.778Z,9.83
2016-04-06T04:04:29.750Z,9.77
2016-04-06T04:05:29.721Z,9.74
2016-04-06T04:06:29.708Z,9.77
2016-04-06T04:07:29.680Z,9.74
2016-04-06T04:08:29.651Z,9.77
2016-04-06T04:09:29.639Z,9.82
2016-04-06T04:10:29.610Z,9.77
2016-04-06T04:11:29.581Z,9.83
2016-04-06T04:12:29.552Z,9.83
2016-04-06T04:13:29.539Z,9.77
2016-04-06T04:14:29.511Z,9.94
2016-04-06T04:15:29.483Z,9.82
2016-04-06T04:16:29.469Z,9.83
2016-04-06T04:17:29.441Z,9.69
2016-04-06T04:18:29.428Z,9.73
2016-04-06T04:19:29.259Z,9.73
2016-04-06T04:20:29.371Z,9.82
2016-04-06T04:21:29.343Z,9.72
2016-04-06T04:22:29.313Z,9.72
2016-04-06T04:23:29.285Z,9.77
2016-04-06T04:24:29.273Z,9.77
2016-04-06T04:25:29.243Z,9.79
2016-04-06T04:26:29.215Z,9.68
2016-04-06T04:27:29.187Z,9.76
2016-04-06T04:28:29.173Z,9.74
2016-04-06T04:29:29.146Z,9.72
2016-04-06T04:30:29.117Z,9.73
2016-04-06T04:31:29.088Z,9.72
2016-04-06T04:32:29.075Z,9.73
2016-04-06T04:33:29.047Z,9.66
2016-04-06T04:34:29.017Z,9.65
2016-04-06T04:35:29.036Z,9.65
2016-04-06T04:36:28.992Z,9.69
2016-04-06T04:37:28.947Z,9.62
2016-04-06T04:38:28.935Z,9.68
2016-04-06T04:39:28.906Z,9.73
2016-04-06T04:40:28.894Z,9.77
2016-04-06T04:41:28.849Z,9.68
2016-04-06T04:42:28.836Z,9.72
2016-04-06T04:43:28.808Z,9.74
2016-04-06T04:44:28.779Z,9.72
2016-04-06T04:45:28.750Z,9.74
2016-04-06T04:46:28.753Z,9.77
2016-04-06T04:47:28.709Z,9.76
2016-04-06T04:48:28.681Z,9.72
2016-04-06T04:49:28.668Z,9.76
2016-04-06T04:50:28.638Z,9.66
2016-04-06T04:51:28.610Z,9.66
2016-04-06T04:52:28.598Z,9.68
2016-04-06T04:53:28.568Z,9.77
2016-04-06T04:54:28.557Z,9.82
2016-04-06T04:55:28.543Z,9.79
2016-04-06T04:56:28.499Z,9.77
2016-04-06T04:57:28.471Z,9.82
2016-04-06T04:58:28.442Z,9.79
2016-04-06T04:59:28.413Z,9.82
2016-04-06T05:00:28.401Z,9.83
2016-04-06T05:01:28.387Z,9.77
2016-04-06T05:02:28.343Z,9.8
2016-04-06T05:03:28.330Z,9.82
2016-04-06T05:04:28.301Z,9.74
2016-04-06T05:05:28.288Z,9.76
2016-04-06T05:06:28.261Z,9.79
2016-04-06T05:07:28.232Z,9.79
2016-04-06T05:08:28.531Z,9.82
2016-04-06T05:09:28.190Z,9.87
2016-04-06T05:10:28.162Z,9.86
2016-04-06T05:11:28.133Z,9.86
2016-04-06T05:12:28.105Z,9.77
2016-04-06T05:13:28.076Z,9.89
2016-04-06T05:14:28.063Z,9.86
2016-04-06T05:15:28.035Z,9.89
2016-04-06T05:16:28.021Z,9.86
2016-04-06T05:17:27.993Z,9.97
2016-04-06T05:18:27.964Z,9.94
2016-04-06T05:19:27.952Z,9.86
2016-04-06T05:20:27.907Z,9.89
2016-04-06T05:21:27.894Z,9.95
2016-04-06T05:22:27.866Z,9.91
2016-04-06T05:23:27.852Z,9.89
2016-04-06T05:24:27.824Z,9.87
2016-04-06T05:25:27.796Z,9.86
2016-04-06T05:26:27.782Z,9.86
2016-04-06T05:27:27.754Z,9.89
2016-04-06T05:28:27.721Z,9.94
2016-04-06T05:29:27.707Z,9.95
2016-04-06T05:30:27.679Z,9.86
2016-04-06T05:31:27.651Z,9.94
2016-04-06T05:32:27.638Z,9.94
2016-04-06T05:33:27.609Z,9.91
2016-04-06T05:34:27.581Z,9.95
2016-04-06T05:35:27.552Z,9.89
2016-04-06T05:36:27.540Z,9.95
2016-04-06T05:37:27.511Z,9.89
2016-04-06T05:38:27.481Z,10.02
2016-04-06T05:39:27.454Z,9.97
2016-04-06T05:40:27.440Z,9.89
2016-04-06T05:41:27.412Z,9.94
2016-04-06T05:42:27.228Z,9.86
2016-04-06T05:43:27.370Z,9.94
2016-04-06T05:44:27.342Z,9.95
2016-04-06T05:45:27.329Z,9.86
2016-04-06T05:46:27.300Z,9.92
2016-04-06T05:47:27.272Z,9.91
2016-04-06T05:48:27.243Z,9.94
2016-04-06T05:49:27.230Z,9.94
2016-04-06T05:50:27.202Z,9.97
2016-04-06T05:51:27.173Z,9.99
2016-04-06T05:52:27.144Z,9.94
2016-04-06T05:53:27.132Z,9.94
2016-04-06T05:54:27.103Z,9.94
2016-04-06T05:55:27.074Z,9.92
2016-04-06T05:56:27.062Z,9.91
2016-04-06T05:57:27.032Z,9.94
2016-04-06T05:58:27.005Z,9.89
2016-04-06T05:59:26.977Z,9.97
2016-04-06T06:00:26.962Z,10.01
2016-04-06T06:01:26.935Z,9.97
2016-04-06T06:02:26.906Z,10.09
2016-04-06T06:03:26.904Z,10.01
2016-04-06T06:04:27.155Z,10.01
2016-04-06T06:05:26.953Z,10.09
2016-04-06T06:06:26.970Z,10.02
2016-04-06T06:07:26.988Z,9.99
2016-04-06T06:08:26.996Z,10.09
2016-04-06T06:09:27.000Z,10.15
2016-04-06T06:10:26.988Z,10.07
2016-04-06T06:11:26.974Z,10.09
2016-04-06T06:12:26.994Z,10.16
2016-04-06T06:13:26.963Z,10.15
2016-04-06T06:14:26.940Z,10.17
2016-04-06T06:15:26.934Z,10.22
2016-04-06T06:16:26.910Z,10.3
2016-04-06T06:17:26.887Z,10.31
2016-04-06T06:18:26.879Z,10.34
2016-04-06T06:19:26.852Z,10.31
2016-04-06T06:20:26.826Z,10.34
2016-04-06T06:21:26.815Z,10.35
2016-04-06T06:22:26.789Z,10.4
2016-04-06T06:23:26.763Z,10.37
2016-04-06T06:24:26.767Z,10.37
2016-04-06T06:25:26.724Z,10.4
2016-04-06T06:26:26.696Z,10.46
2016-04-06T06:27:26.683Z,10.46
2016-04-06T06:28:26.515Z,10.48
2016-04-06T06:29:26.643Z,10.46
2016-04-06T06:30:26.615Z,10.46
2016-04-06T06:31:26.587Z,10.34
2016-04-06T06:32:26.558Z,10.44
2016-04-06T06:33:26.546Z,10.38
2016-04-06T06:34:26.548Z,10.41
2016-04-06T06:35:26.504Z,10.38
2016-04-06T06:36:26.476Z,10.35
2016-04-06T06:37:26.463Z,10.42
2016-04-06T06:38:26.434Z,10.51
2016-04-06T06:39:26.546Z,10.57
2016-04-06T06:40:26.612Z,10.59
2016-04-06T06:41:26.365Z,10.54
2016-04-06T06:42:26.335Z,10.6
2016-04-06T06:43:26.338Z,10.69
2016-04-06T06:44:26.310Z,10.72
2016-04-06T06:45:26.282Z,10.67
2016-04-06T06:46:26.253Z,10.69
2016-04-06T06:47:26.223Z,10.75
2016-04-06T06:48:26.195Z,10.75
2016-04-06T06:49:26.183Z,10.76
2016-04-06T06:50:26.186Z,10.69
2016-04-06T06:51:26.141Z,10.76
2016-04-06T06:52:26.112Z,10.71
2016-04-06T06:53:26.100Z,10.63
2016-04-06T06:54:26.071Z,10.71
2016-04-06T06:55:26.042Z,10.64
2016-04-06T06:56:26.030Z,10.72
2016-04-06T06:57:26.001Z,10.76
2016-04-06T06:58:25.988Z,10.75
2016-04-06T06:59:25.959Z,10.84
2016-04-06T07:00:25.930Z,10.79
2016-04-06T07:01:25.919Z,10.86
2016-04-06T07:02:25.889Z,10.86
2016-04-06T07:03:25.877Z,10.87
2016-04-06T07:04:25.848Z,10.84
2016-04-06T07:05:25.851Z,10.72
2016-04-06T07:06:25.838Z,10.74
2016-04-06T07:07:25.777Z,10.89
2016-04-06T07:08:25.749Z,10.79
2016-04-06T07:09:25.737Z,10.78
2016-04-06T07:10:25.724Z,10.81
2016-04-06T07:11:25.695Z,10.86
2016-04-06T07:12:25.666Z,10.89
2016-04-06T07:13:25.653Z,10.81
2016-04-06T07:14:25.625Z,10.82
2016-04-06T07:15:25.595Z,10.87
2016-04-06T07:16:25.583Z,10.92
2016-04-06T07:17:25.570Z,10.94
2016-04-06T07:18:25.542Z,10.96
2016-04-06T07:19:25.513Z,11.04
2016-04-06T07:20:25.501Z,11.02
2016-04-06T07:21:25.472Z,10.99
2016-04-06T07:22:25.459Z,11.07
2016-04-06T07:23:25.431Z,11.07
2016-04-06T07:24:25.418Z,11.18
2016-04-06T07:25:25.389Z,11.14
2016-04-06T07:26:25.360Z,11.18
2016-04-06T07:27:25.347Z,11.19
2016-04-06T07:28:25.319Z,11.18
2016-04-06T07:29:25.305Z,11.23
2016-04-06T07:30:25.277Z,11.18
2016-04-06T07:31:25.264Z,11.18
2016-04-06T07:32:25.235Z,11.26
2016-04-06T07:33:25.208Z,11.23
2016-04-06T07:34:25.194Z,11.36
2016-04-06T07:35:25.166Z,11.37
2016-04-06T07:36:25.152Z,11.33
2016-04-06T07:37:25.155Z,11.45
2016-04-06T07:38:25.111Z,11.41
2016-04-06T07:39:25.083Z,11.35
2016-04-06T07:40:25.070Z,11.47
2016-04-06T07:41:25.041Z,11.37
2016-04-06T07:42:25.029Z,11.43
2016-04-06T07:43:24.999Z,11.37
2016-04-06T07:44:24.987Z,11.4
2016-04-06T07:45:25.162Z,11.48
2016-04-06T07:46:24.946Z,11.41
2016-04-06T07:47:24.917Z,11.5
2016-04-06T07:48:24.904Z,11.54
2016-04-06T07:49:24.876Z,11.62
2016-04-06T07:50:24.909Z,11.59
2016-04-06T07:51:24.834Z,11.69
2016-04-06T07:52:24.820Z,11.7
2016-04-06T07:53:24.808Z,11.77
2016-04-06T07:54:24.779Z,11.77
2016-04-06T07:55:24.750Z,11.75
2016-04-06T07:56:24.738Z,11.81
2016-04-06T07:57:24.709Z,11.8
2016-04-06T07:58:24.697Z,11.83
2016-04-06T07:59:24.667Z,11.8
2016-04-06T08:00:24.670Z,11.84
2016-04-06T08:01:24.626Z,11.86
2016-04-06T08:02:24.614Z,11.97
2016-04-06T08:03:24.600Z,12.02
2016-04-06T08:04:24.571Z,11.94
2016-04-06T08:05:24.683Z,11.95
2016-04-06T08:06:24.530Z,11.88
2016-04-06T08:07:24.518Z,11.97
2016-04-06T08:08:24.489Z,12.13
2016-04-06T08:09:24.616Z,12.15
2016-04-06T08:10:24.447Z,12.2
2016-04-06T08:11:24.435Z,12.27
2016-04-06T08:12:24.421Z,12.35
2016-04-06T08:13:24.393Z,12.28
2016-04-06T08:14:24.583Z,12.24
2016-04-06T08:15:24.349Z,12.35
2016-04-06T08:16:24.335Z,12.25
2016-04-06T08:17:24.307Z,12.2
2016-04-06T08:18:24.294Z,12.28
2016-04-06T08:19:24.281Z,12.32
2016-04-06T08:20:24.346Z,12.36
2016-04-06T08:21:24.270Z,12.47
2016-04-06T08:22:24.211Z,12.37
2016-04-06T08:23:24.198Z,12.39
2016-04-06T08:24:24.170Z,12.54
2016-04-06T08:25:24.157Z,12.55
2016-04-06T08:26:24.128Z,12.46
2016-04-06T08:27:24.115Z,12.53
2016-04-06T08:28:24.102Z,12.5
2016-04-06T08:29:24.075Z,12.64
2016-04-06T08:30:24.061Z,12.54
2016-04-06T08:31:24.033Z,12.55
2016-04-06T08:32:24.019Z,12.6
2016-04-06T08:33:24.022Z,12.65
2016-04-06T08:34:23.978Z,12.62
2016-04-06T08:35:23.966Z,12.8
2016-04-06T08:36:23.937Z,12.85
2016-04-06T08:37:23.924Z,12.9
2016-04-06T08:38:23.910Z,12.82
2016-04-06T08:39:23.944Z,12.82
2016-04-06T08:40:23.885Z,12.9
2016-04-06T08:41:23.841Z,12.98
2016-04-06T08:42:23.827Z,13
2016-04-06T08:43:23.799Z,12.98
2016-04-06T08:44:23.802Z,13.01
2016-04-06T08:45:23.852Z,13.01
2016-04-06T08:46:23.745Z,13
2016-04-06T08:47:23.732Z,13
2016-04-06T08:48:23.719Z,12.94
2016-04-06T08:49:23.690Z,13.03
2016-04-06T08:50:23.676Z,12.93
2016-04-06T08:51:23.665Z,12.98
2016-04-06T08:52:23.636Z,12.9
2016-04-06T08:53:23.623Z,13.01
2016-04-06T08:54:23.595Z,13.05
2016-04-06T08:55:23.581Z,13
2016-04-06T08:56:23.568Z,13.15
2016-04-06T08:57:23.556Z,13.01
2016-04-06T08:58:23.527Z,12.97
2016-04-06T08:59:23.514Z,12.93
2016-04-06T09:00:23.485Z,12.83
2016-04-06T09:01:23.473Z,12.83
2016-04-06T09:02:23.459Z,12.97
2016-04-06T09:03:23.431Z,12.98
2016-04-06T09:04:23.418Z,12.94
2016-04-06T09:05:23.405Z,13.03
2016-04-06T09:06:23.377Z,13.13
2016-04-06T09:07:23.364Z,13.2
2016-04-06T09:08:23.350Z,13.25
2016-04-06T09:09:23.322Z,13.27
2016-04-06T09:10:23.309Z,13.19
2016-04-06T09:11:23.312Z,13.28
2016-04-06T09:12:23.268Z,13.31
2016-04-06T09:13:23.254Z,13.33
2016-04-06T09:14:23.227Z,13.44
2016-04-06T09:15:23.213Z,13.57
2016-04-06T09:16:23.200Z,13.6
2016-04-06T09:17:23.187Z,13.59
2016-04-06T09:18:23.159Z,13.7
2016-04-06T09:19:23.146Z,13.75
2016-04-06T09:20:23.117Z,13.7
2016-04-06T09:21:23.105Z,13.7
2016-04-06T09:22:23.092Z,13.7
2016-04-06T09:23:23.062Z,13.72
2016-04-06T09:24:23.066Z,13.7
2016-04-06T09:25:23.053Z,14
2016-04-06T09:26:23.024Z,13.99
2016-04-06T09:27:23.136Z,14.03
2016-04-06T09:28:22.983Z,14.05
2016-04-06T09:29:22.954Z,13.95
2016-04-06T09:30:22.941Z,13.89
2016-04-06T09:31:22.928Z,13.9
2016-04-06T09:32:22.915Z,13.9
2016-04-06T09:33:22.903Z,13.85
2016-04-06T09:34:22.874Z,13.85
2016-04-06T09:35:22.861Z,13.83
2016-04-06T09:36:22.833Z,13.78
2016-04-06T09:37:22.835Z,13.77
2016-04-06T09:38:22.806Z,13.74
2016-04-06T09:39:22.778Z,13.85
2016-04-06T09:40:22.796Z,13.9
2016-04-06T09:41:22.752Z,13.95
2016-04-06T09:42:22.775Z,14.04
2016-04-06T09:43:22.715Z,14.15
2016-04-06T09:44:22.702Z,14.14
2016-04-06T09:45:22.714Z,14.2
2016-04-06T09:46:22.654Z,14.25
2016-04-06T09:47:22.641Z,14.17
2016-04-06T09:48:22.644Z,14.26
2016-04-06T09:49:22.615Z,14.37
2016-04-06T09:50:22.587Z,14.47
2016-04-06T09:51:22.574Z,14.45
2016-04-06T09:52:22.546Z,14.62
2016-04-06T09:53:22.548Z,14.69
2016-04-06T09:54:22.519Z,14.73
2016-04-06T09:55:22.522Z,14.72
2016-04-06T09:56:22.477Z,14.72
2016-04-06T09:57:22.465Z,14.72
2016-04-06T09:58:22.452Z,14.63
2016-04-06T09:59:22.423Z,14.55
2016-04-06T10:00:22.410Z,14.44
2016-04-06T10:01:22.397Z,14.36
2016-04-06T10:02:22.401Z,14.26
2016-04-06T10:03:22.356Z,14.26
2016-04-06T10:04:22.343Z,14.15
2016-04-06T10:05:22.331Z,14.2
2016-04-06T10:06:22.301Z,14.23
2016-04-06T10:07:22.289Z,14.25
2016-04-06T10:08:22.260Z,14.23
2016-04-06T10:09:22.247Z,14.11
2016-04-06T10:10:22.281Z,14.08
2016-04-06T10:11:22.206Z,14.04
2016-04-06T10:12:22.192Z,13.95
2016-04-06T10:13:22.164Z,14.03
2016-04-06T10:14:22.151Z,14.05
2016-04-06T10:15:22.138Z,13.92
2016-04-06T10:16:22.110Z,13.83
2016-04-06T10:17:22.097Z,13.7
2016-04-06T10:18:22.084Z,13.81
2016-04-06T10:19:22.055Z,13.92
2016-04-06T10:20:22.042Z,13.99
2016-04-06T10:21:22.014Z,14.08
2016-04-06T10:22:22.016Z,14.23
2016-04-06T10:23:21.988Z,14.4
2016-04-06T10:24:21.975Z,14.3
2016-04-06T10:25:21.946Z,14.36
2016-04-06T10:26:21.918Z,14.55
2016-04-06T10:27:21.905Z,14.59
2016-04-06T10:28:21.893Z,14.68
2016-04-06T10:29:21.879Z,14.73
2016-04-06T10:30:21.850Z,14.65
2016-04-06T10:31:21.838Z,14.65
2016-04-06T10:32:21.824Z,14.69
2016-04-06T10:33:21.812Z,14.63
2016-04-06T10:34:21.783Z,14.62
2016-04-06T10:35:21.771Z,14.58
2016-04-06T10:36:21.757Z,14.53
2016-04-06T10:37:21.744Z,14.6
2016-04-06T10:38:21.715Z,14.54
2016-04-06T10:39:21.703Z,14.47
2016-04-06T10:40:21.675Z,14.36
2016-04-06T10:41:21.661Z,14.35
2016-04-06T10:42:21.648Z,14.47
2016-04-06T10:43:21.620Z,14.44
2016-04-06T10:44:21.606Z,14.51
2016-04-06T10:45:21.594Z,14.66
2016-04-06T10:46:21.566Z,14.69
2016-04-06T10:47:21.569Z,14.82
2016-04-06T10:48:21.540Z,14.86
2016-04-06T10:49:21.542Z,14.88
2016-04-06T10:50:21.497Z,14.88
2016-04-06T10:51:21.485Z,14.91
2016-04-06T10:52:21.472Z,14.92
2016-04-06T10:53:21.444Z,14.96
2016-04-06T10:54:21.508Z,15.09
2016-04-06T10:55:21.933Z,15.09
2016-04-06T10:56:21.389Z,15.15
2016-04-06T10:57:21.376Z,15.21
2016-04-06T10:58:21.363Z,15.21
2016-04-06T10:59:21.351Z,15.19
2016-04-06T11:00:21.337Z,15.21
2016-04-06T11:01:21.402Z,15.21
2016-04-06T11:02:21.295Z,15.24
2016-04-06T11:03:21.268Z,15.19
2016-04-06T11:04:21.239Z,15.22
2016-04-06T11:05:21.272Z,15.19
2016-04-06T11:06:21.259Z,15.33
2016-04-06T11:07:21.201Z,15.35
2016-04-06T11:08:21.187Z,15.42
2016-04-06T11:09:21.158Z,15.42
2016-04-06T11:10:21.146Z,15.44
2016-04-06T11:11:21.117Z,15.47
2016-04-06T11:12:21.119Z,15.46
2016-04-06T11:13:21.092Z,15.49
2016-04-06T11:14:21.079Z,15.44
2016-04-06T11:15:21.065Z,15.57
2016-04-06T11:16:21.036Z,15.46
2016-04-06T11:17:21.024Z,15.49
2016-04-06T11:18:21.011Z,15.54
2016-04-06T11:19:20.997Z,15.61
2016-04-06T11:20:20.969Z,15.49
2016-04-06T11:21:20.972Z,15.54
2016-04-06T11:22:20.944Z,15.58
2016-04-06T11:23:20.946Z,15.76
2016-04-06T11:24:20.902Z,15.82
2016-04-06T11:25:20.889Z,15.8
2016-04-06T11:26:20.891Z,15.8
2016-04-06T11:27:20.863Z,15.84
2016-04-06T11:28:20.850Z,15.84
2016-04-06T11:29:20.821Z,15.8
2016-04-06T11:30:20.809Z,15.76
2016-04-06T11:31:20.795Z,15.77
2016-04-06T11:32:20.845Z,15.68
2016-04-06T11:33:20.754Z,15.59
2016-04-06T11:34:20.741Z,15.47
2016-04-06T11:35:20.573Z,15.49
2016-04-06T11:36:20.715Z,15.44
2016-04-06T11:37:20.687Z,15.43
2016-04-06T11:38:20.956Z,15.35
2016-04-06T11:39:20.661Z,15.35
2016-04-06T11:40:20.648Z,15.33
2016-04-06T11:41:20.634Z,15.31
2016-04-06T11:42:20.607Z,15.28
2016-04-06T11:43:20.594Z,15.18
2016-04-06T11:44:20.581Z,15.18
2016-04-06T11:45:20.552Z,15.19
2016-04-06T11:46:20.539Z,15.18
2016-04-06T11:47:20.526Z,15.25
2016-04-06T11:48:20.514Z,15.21
2016-04-06T11:49:20.485Z,15.31
2016-04-06T11:50:20.472Z,15.4
2016-04-06T11:51:20.459Z,15.44
2016-04-06T11:52:20.446Z,15.61
2016-04-06T11:53:20.433Z,15.47
2016-04-06T11:54:20.404Z,15.43
2016-04-06T11:55:20.391Z,15.46
2016-04-06T11:56:20.363Z,15.51
2016-04-06T11:57:20.350Z,15.44
2016-04-06T11:58:20.353Z,15.47
2016-04-06T11:59:20.324Z,15.46
2016-04-06T12:00:20.296Z,15.42
2016-04-06T12:01:20.282Z,15.43
2016-04-06T12:02:20.270Z,15.51
2016-04-06T12:03:20.257Z,15.59
2016-04-06T12:04:20.276Z,15.55
2016-04-06T12:05:20.340Z,15.77
2016-04-06T12:06:20.234Z,15.79
2016-04-06T12:07:20.189Z,15.88
2016-04-06T12:08:20.184Z,15.98
2016-04-06T12:09:20.155Z,16.05
2016-04-06T12:10:20.141Z,16
2016-04-06T12:11:20.129Z,16.01
2016-04-06T12:12:20.116Z,16
2016-04-06T12:13:20.088Z,15.88
2016-04-06T12:14:20.090Z,15.91
2016-04-06T12:15:20.061Z,15.84
2016-04-06T12:16:20.049Z,15.82
2016-04-06T12:17:20.037Z,15.8
2016-04-06T12:18:20.009Z,15.75
2016-04-06T12:19:19.996Z,15.82
2016-04-06T12:20:19.984Z,15.75
2016-04-06T12:21:20.048Z,15.84
2016-04-06T12:22:19.942Z,15.82
2016-04-06T12:23:19.944Z,15.76
2016-04-06T12:24:19.916Z,15.84
2016-04-06T12:25:19.887Z,15.77
2016-04-06T12:26:19.875Z,15.84
2016-04-06T12:27:19.861Z,15.77
2016-04-06T12:28:19.114Z,15.9
2016-04-06T12:29:19.835Z,15.79
2016-04-06T12:30:19.807Z,15.76
2016-04-06T12:31:19.794Z,15.73
2016-04-06T12:32:19.781Z,15.76
2016-04-06T12:33:19.908Z,15.75
2016-04-06T12:34:19.740Z,15.82
2016-04-06T12:35:19.727Z,15.79
2016-04-06T12:36:19.744Z,15.83
2016-04-06T12:37:19.685Z,15.79
2016-04-06T12:38:19.688Z,15.84
2016-04-06T12:39:19.659Z,15.91
2016-04-06T12:40:19.647Z,16.02
2016-04-06T12:41:19.633Z,16.05
2016-04-06T12:42:19.621Z,16.09
2016-04-06T12:43:19.607Z,16.08
2016-04-06T12:44:19.579Z,16.09
2016-04-06T12:45:19.566Z,16.13
2016-04-06T12:46:19.554Z,16.15
2016-04-06T12:47:19.634Z,16.17
2016-04-06T12:48:19.511Z,16.26
2016-04-06T12:49:19.499Z,16.28
2016-04-06T12:50:19.486Z,16.36
2016-04-06T12:51:19.347Z,16.23
2016-04-06T12:52:19.444Z,16.24
2016-04-06T12:53:19.432Z,16.28
2016-04-06T12:54:19.418Z,16.17
2016-04-06T12:55:19.405Z,16.21
2016-04-06T12:56:19.378Z,16.17
2016-04-06T12:57:19.363Z,16.21
2016-04-06T12:58:19.351Z,16.29
2016-04-06T12:59:19.338Z,16.35
2016-04-06T13:00:19.309Z,16.54